createdAt,value
2022-11-11T00:00:19.027Z,1.08
2022-11-11T00:05:21.751Z,0.80
2022-11-11T00:10:23.145Z,0.90
2022-11-11T00:15:24.564Z,0.63
2022-11-11T00:20:44.945Z,0.70
2022-11-11T00:25:46.534Z,0.82
2022-11-11T00:30:48.083Z,1.00
2022-11-11T00:35:55.391Z,0.90
2022-11-11T00:40:56.818Z,0.60
2022-11-11T00:46:18.400Z,0.80
2022-11-11T00:51:19.821Z,0.60
2022-11-11T00:56:22.033Z,1.00
2022-11-11T01:01:23.603Z,1.08
2022-11-11T01:06:25.104Z,0.60
2022-11-11T01:11:26.538Z,0.73
2022-11-11T01:16:28.025Z,0.60
2022-11-11T01:21:29.554Z,0.70
2022-11-11T01:26:31.889Z,0.70
2022-11-11T01:31:33.504Z,0.90
2022-11-11T01:36:35.092Z,0.70
2022-11-11T01:41:36.889Z,0.63
2022-11-11T01:46:41.423Z,0.43
2022-11-11T01:51:46.925Z,0.40
2022-11-11T01:56:50.427Z,0.68
2022-11-11T02:01:52.052Z,0.90
2022-11-11T02:06:54.943Z,0.60
2022-11-11T02:12:16.862Z,0.70
2022-11-11T02:17:19.857Z,0.90
2022-11-11T02:22:31.943Z,0.68
2022-11-11T02:27:35.850Z,0.55
2022-11-11T02:32:37.536Z,0.75
2022-11-11T02:37:39.074Z,0.57
2022-11-11T02:42:40.620Z,0.68
2022-11-11T02:47:42.326Z,0.60
2022-11-11T02:52:43.744Z,0.60
2022-11-11T02:57:45.339Z,0.57
2022-11-11T03:02:46.928Z,0.75
2022-11-11T03:07:48.749Z,0.50
2022-11-11T03:12:50.271Z,0.50
2022-11-11T03:17:51.770Z,0.85
2022-11-11T03:23:00.044Z,0.70
2022-11-11T03:28:01.607Z,0.70
2022-11-11T03:33:03.247Z,0.40
2022-11-11T03:38:38.139Z,0.70
2022-11-11T03:43:39.909Z,0.80
2022-11-11T03:48:41.401Z,0.80
2022-11-11T03:53:42.824Z,0.68
2022-11-11T03:58:44.264Z,0.60
2022-11-11T04:04:04.476Z,0.60
2022-11-11T04:09:26.199Z,0.65
2022-11-11T04:14:45.982Z,0.52
2022-11-11T04:20:06.107Z,0.33
2022-11-11T04:25:26.147Z,0.40
2022-11-11T04:30:27.546Z,0.50
2022-11-11T04:35:28.968Z,0.40
2022-11-11T04:40:48.752Z,0.50
2022-11-11T04:45:50.523Z,0.63
2022-11-11T04:50:51.967Z,0.30
2022-11-11T04:56:11.888Z,0.75
2022-11-11T05:01:33.378Z,0.70
2022-11-11T05:06:58.942Z,0.57
2022-11-11T05:12:00.939Z,0.70
2022-11-11T05:17:20.964Z,0.35
2022-11-11T05:22:30.527Z,0.60
2022-11-11T05:27:31.982Z,0.70
2022-11-11T05:32:33.506Z,0.95
2022-11-11T05:37:34.919Z,0.60
2022-11-11T05:42:39.997Z,0.52
2022-11-11T05:47:44.178Z,0.82
2022-11-11T05:52:49.620Z,0.70
2022-11-11T05:57:51.051Z,0.70
2022-11-11T06:02:52.434Z,0.60
2022-11-11T06:07:54.748Z,0.80
2022-11-11T06:13:02.460Z,0.60
2022-11-11T06:18:04.621Z,0.70
2022-11-11T06:23:06.535Z,0.50
2022-11-11T06:28:07.984Z,0.90
2022-11-11T06:33:09.811Z,0.60
2022-11-11T06:38:11.272Z,1.00
2022-11-11T06:43:13.058Z,0.80
2022-11-11T06:48:14.652Z,0.85
2022-11-11T06:53:17.183Z,0.65
2022-11-11T06:58:19.747Z,0.90
2022-11-11T07:03:25.494Z,1.10
2022-11-11T07:08:27.763Z,1.08
2022-11-11T07:13:29.374Z,1.00
2022-11-11T07:18:30.768Z,1.05
2022-11-11T07:23:32.298Z,0.65
2022-11-11T07:28:33.699Z,0.82
2022-11-11T07:33:35.099Z,0.98
2022-11-11T07:38:36.611Z,2.00
2022-11-11T07:43:38.375Z,1.67
2022-11-11T07:48:39.896Z,1.50
2022-11-11T07:53:41.324Z,1.95
2022-11-11T07:58:42.760Z,1.15
2022-11-11T08:03:50.163Z,1.52
2022-11-11T08:08:51.640Z,1.33
2022-11-11T08:13:53.034Z,1.55
2022-11-11T08:18:54.603Z,1.50
2022-11-11T08:29:17.655Z,1.40
2022-11-11T08:34:19.124Z,2.20
2022-11-11T08:39:20.583Z,1.15
2022-11-11T08:44:22.279Z,1.65
2022-11-11T08:49:23.803Z,1.60
2022-11-11T08:54:25.216Z,1.75
2022-11-11T08:59:26.642Z,2.08
2022-11-11T09:04:45.284Z,1.60
2022-11-11T09:09:47.839Z,1.57
2022-11-11T09:14:50.040Z,1.95
2022-11-11T09:19:51.443Z,1.58
2022-11-11T09:24:53.001Z,1.52
2022-11-11T09:29:54.480Z,2.42
2022-11-11T09:34:55.981Z,1.60
2022-11-11T09:39:57.430Z,1.38
2022-11-11T09:44:59.159Z,1.45
2022-11-11T09:50:23.787Z,1.33
2022-11-11T09:55:28.234Z,1.27
2022-11-11T10:00:35.240Z,1.45
2022-11-11T10:05:56.746Z,1.20
2022-11-11T10:11:01.191Z,1.25
2022-11-11T10:16:14.544Z,1.85
2022-11-11T10:21:21.094Z,1.27
2022-11-11T10:26:37.509Z,1.65
2022-11-11T10:31:40.677Z,2.38
2022-11-11T10:36:48.219Z,1.10
2022-11-11T10:41:50.659Z,1.02
2022-11-11T10:46:58.651Z,1.13
2022-11-11T10:52:05.227Z,1.20
2022-11-11T10:57:32.854Z,1.20
2022-11-11T11:02:42.057Z,1.20
2022-11-11T11:07:45.360Z,1.23
2022-11-11T11:13:05.624Z,1.33
2022-11-11T11:18:08.486Z,1.38
2022-11-11T11:23:09.875Z,1.05
2022-11-11T11:28:14.144Z,1.33
2022-11-11T11:33:15.542Z,1.05
2022-11-11T11:38:17.619Z,1.10
2022-11-11T11:43:38.184Z,0.50
2022-11-11T11:53:54.747Z,1.02
2022-11-11T11:59:14.834Z,0.75
2022-11-11T12:04:37.285Z,1.00
2022-11-11T12:09:42.535Z,1.10
2022-11-11T12:14:48.367Z,1.27
2022-11-11T12:19:49.883Z,0.80
2022-11-11T12:25:14.500Z,0.65
2022-11-11T12:30:20.096Z,0.90
2022-11-11T12:35:27.517Z,0.77
2022-11-11T12:40:31.669Z,0.63
2022-11-11T12:45:36.295Z,0.77
2022-11-11T12:51:05.912Z,0.65
2022-11-11T12:56:19.476Z,0.77
2022-11-11T13:01:53.156Z,0.70
2022-11-11T13:07:13.164Z,0.70
2022-11-11T13:12:19.005Z,0.40
2022-11-11T13:17:21.849Z,0.70
2022-11-11T13:22:25.283Z,0.68
2022-11-11T13:27:32.480Z,1.08
2022-11-11T13:32:40.483Z,0.73
2022-11-11T13:37:44.402Z,0.32
2022-11-11T13:42:49.024Z,0.60
2022-11-11T13:47:50.567Z,0.47
2022-11-11T13:53:02.906Z,0.70
2022-11-11T13:58:04.711Z,0.80
2022-11-11T14:03:18.307Z,0.60
2022-11-11T14:08:39.983Z,0.80
2022-11-11T14:13:41.987Z,0.35
2022-11-11T14:18:43.932Z,0.65
2022-11-11T14:23:52.956Z,0.57
2022-11-11T14:28:55.762Z,0.68
2022-11-11T14:34:02.986Z,0.70
2022-11-11T14:39:10.299Z,0.82
2022-11-11T14:44:27.783Z,0.70
2022-11-11T14:49:44.293Z,0.60
2022-11-11T14:54:52.911Z,0.70
2022-11-11T15:00:04.920Z,0.77
2022-11-11T15:05:12.815Z,0.80
2022-11-11T15:10:27.066Z,0.70
2022-11-11T15:15:36.036Z,1.27
2022-11-11T15:21:16.020Z,0.95
2022-11-11T15:26:21.301Z,1.25
2022-11-11T15:31:28.556Z,1.20
2022-11-11T15:36:29.936Z,1.05
2022-11-11T15:41:39.547Z,1.05
2022-11-11T15:46:41.975Z,1.13
2022-11-11T15:51:45.038Z,0.90
2022-11-11T15:56:46.607Z,1.20
2022-11-11T16:01:48.186Z,1.27
2022-11-11T16:06:50.014Z,0.90
2022-11-11T16:11:53.363Z,0.82
2022-11-11T16:16:56.339Z,0.60
2022-11-11T16:22:04.379Z,0.65
2022-11-11T16:27:06.553Z,0.70
2022-11-11T16:32:32.810Z,0.98
2022-11-11T16:37:50.308Z,0.80
2022-11-11T16:42:52.427Z,0.70
2022-11-11T16:47:54.445Z,0.68
2022-11-11T16:53:07.529Z,0.52
2022-11-11T16:58:16.575Z,0.68
2022-11-11T17:03:25.650Z,0.55
2022-11-11T17:08:32.027Z,0.60
2022-11-11T17:13:38.010Z,0.80
2022-11-11T17:18:42.558Z,0.52
2022-11-11T17:23:44.013Z,1.13
2022-11-11T17:28:45.647Z,1.10
2022-11-11T17:33:47.055Z,1.10
2022-11-11T17:38:48.568Z,1.13
2022-11-11T17:43:50.048Z,1.45
2022-11-11T17:48:55.615Z,1.35
2022-11-11T17:53:57.760Z,1.35
2022-11-11T17:58:59.179Z,1.13
2022-11-11T18:04:00.702Z,1.60
2022-11-11T18:09:02.139Z,1.30
2022-11-11T18:14:03.954Z,1.60
2022-11-11T18:19:06.156Z,1.63
2022-11-11T18:24:08.421Z,1.50
2022-11-11T18:29:10.682Z,1.48
2022-11-11T18:34:12.253Z,2.38
2022-11-11T18:39:13.740Z,2.08
2022-11-11T18:44:15.508Z,1.83
2022-11-11T18:49:17.041Z,2.08
2022-11-11T18:54:18.494Z,2.30
2022-11-11T18:59:20.680Z,1.77
2022-11-11T19:04:22.140Z,2.00
2022-11-11T19:09:24.784Z,2.03
2022-11-11T19:14:27.342Z,1.67
2022-11-11T19:19:28.806Z,2.03
2022-11-11T19:24:33.842Z,2.20
2022-11-11T19:29:35.533Z,1.50
2022-11-11T19:34:36.967Z,1.38
2022-11-11T19:39:39.268Z,1.45
2022-11-11T19:44:40.907Z,1.83
2022-11-11T19:49:42.425Z,1.75
2022-11-11T19:54:43.855Z,1.63
2022-11-11T19:59:45.322Z,1.33
2022-11-11T20:04:46.972Z,1.38
2022-11-11T20:09:48.414Z,1.40
2022-11-11T20:14:50.028Z,2.03
2022-11-11T20:19:51.787Z,1.70
2022-11-11T20:24:53.232Z,1.70
2022-11-11T20:29:54.705Z,1.77
2022-11-11T20:34:56.781Z,1.52
2022-11-11T20:39:58.206Z,1.48
2022-11-11T20:44:59.726Z,1.58
2022-11-11T20:50:01.588Z,2.08
2022-11-11T20:55:03.217Z,1.80
2022-11-11T21:00:05.292Z,2.13
2022-11-11T21:05:06.932Z,0.80
2022-11-11T21:10:08.419Z,1.73
2022-11-11T21:15:10.018Z,1.33
2022-11-11T21:20:11.480Z,0.88
2022-11-11T21:25:12.900Z,1.35
2022-11-11T21:30:14.483Z,1.85
2022-11-11T21:35:16.012Z,1.45
2022-11-11T21:40:17.455Z,1.02
2022-11-11T21:45:19.210Z,1.40
2022-11-11T21:50:20.671Z,1.40
2022-11-11T21:55:22.101Z,1.15
2022-11-11T22:00:23.588Z,1.00
2022-11-11T22:05:25.000Z,1.27
2022-11-11T22:10:26.447Z,1.38
2022-11-11T22:15:27.851Z,1.17
2022-11-11T22:20:29.295Z,1.30
2022-11-11T22:25:30.863Z,1.52
2022-11-11T22:30:32.306Z,1.17
2022-11-11T22:35:33.715Z,1.27
2022-11-11T22:40:35.193Z,1.25
2022-11-11T22:45:37.000Z,1.15
2022-11-11T22:50:38.442Z,1.60
2022-11-11T22:55:39.858Z,1.58
2022-11-11T23:00:41.275Z,1.60
2022-11-11T23:05:42.713Z,1.40
2022-11-11T23:10:44.143Z,1.17
2022-11-11T23:15:52.454Z,1.60
2022-11-11T23:20:57.829Z,1.17
2022-11-11T23:26:03.282Z,1.75
2022-11-11T23:31:05.973Z,0.98
2022-11-11T23:36:09.584Z,1.13
2022-11-11T23:41:11.342Z,1.58
2022-11-11T23:46:12.921Z,0.93
2022-11-11T23:51:14.376Z,1.38
2022-11-11T23:56:15.849Z,1.30
